ジャカルタ の空港の天気 - METARとTAF

スカルノハッタ国際空港 ( WIII / CGK ) - インドネシア バンテン州、Cengkareng ( ジャカルタ近郊)
飛行場実況気象(Metar)
観測時間02/21 09:00 WIB (02/21 02:00 UTC)
風向・風速不定 2m/s
視程9000m
天気現象
全天の4割程度の雲 雲底高度 610m
気温30℃
湿度70%
気圧1013hPa
METARWIII 210200Z VRB04KT 9000 SCT020 30/24 Q1013 NOSIG
過去の天気等 Google飛行場航空写真 Wunderground天気予報

過去48時間のMETAR

飛行場予報(TAF)
発表時間: 2/21 06:00 WIB (2/20 23:00 UTC)
予報対象時間: 21日7時 WIB ~ 22日13時 WIB
風向・風速不定 2m/s
視程5000m
天気現象煙霧
少しの積乱雲 雲底高度 580m
全天の4割程度の雲 雲底高度 610m
21日8時 WIB ~ 21日10時 WIB に徐々に
風向・風速北北東 5m/s
視程8000m
天気現象運行に影響にある天気現象が終了
全天の4割程度の雲 雲底高度 610m
21日12時 WIB ~ 21日16時 WIB に一時的に
視程4000m
天気現象雷雨
少しの積乱雲 雲底高度 580m
全天の8割程度の雲 雲底高度 610m
21日19時 WIB ~ 21日21時 WIB に徐々に
風向・風速不定 2m/s
視程5000m
天気現象煙霧
TAF COR WIII 202300Z 2100/2206 VRB03KT 5000 HZ FEW019CB SCT020
BECMG 2101/2103 02010KT 8000 NSW SCT020
TEMPO 2105/2109 4000 TSRA FEW019CB BKN020
BECMG 2112/2114 VRB04KT 5000 HZ